sensor_id;sensor_type;location;lat;lon;timestamp;P1;durP1;ratioP1;P2;durP2;ratioP2
5010;SDS011;2524;54.364;10.072;2024-03-06T00:00:41;8.03;;;7.20;;
5010;SDS011;2524;54.364;10.072;2024-03-06T00:03:06;9.27;;;7.80;;
5010;SDS011;2524;54.364;10.072;2024-03-06T00:05:32;11.00;;;8.33;;
5010;SDS011;2524;54.364;10.072;2024-03-06T00:07:57;8.73;;;7.80;;
5010;SDS011;2524;54.364;10.072;2024-03-06T00:10:23;7.97;;;7.17;;
5010;SDS011;2524;54.364;10.072;2024-03-06T00:12:48;8.30;;;7.60;;
5010;SDS011;2524;54.364;10.072;2024-03-06T00:15:14;8.77;;;6.63;;
5010;SDS011;2524;54.364;10.072;2024-03-06T00:17:40;7.80;;;7.00;;
5010;SDS011;2524;54.364;10.072;2024-03-06T00:20:06;7.40;;;6.70;;
5010;SDS011;2524;54.364;10.072;2024-03-06T00:22:33;7.30;;;6.60;;
5010;SDS011;2524;54.364;10.072;2024-03-06T00:24:58;6.97;;;6.27;;
5010;SDS011;2524;54.364;10.072;2024-03-06T00:27:24;7.00;;;6.17;;
5010;SDS011;2524;54.364;10.072;2024-03-06T00:29:49;11.50;;;7.47;;
5010;SDS011;2524;54.364;10.072;2024-03-06T00:32:15;6.70;;;6.00;;
5010;SDS011;2524;54.364;10.072;2024-03-06T00:34:41;6.47;;;5.87;;
5010;SDS011;2524;54.364;10.072;2024-03-06T00:37:06;6.80;;;6.20;;
5010;SDS011;2524;54.364;10.072;2024-03-06T00:39:32;6.50;;;6.00;;
5010;SDS011;2524;54.364;10.072;2024-03-06T00:41:57;5.73;;;5.23;;
5010;SDS011;2524;54.364;10.072;2024-03-06T00:44:23;6.43;;;5.83;;
5010;SDS011;2524;54.364;10.072;2024-03-06T00:46:48;7.37;;;6.67;;
5010;SDS011;2524;54.364;10.072;2024-03-06T00:49:14;7.53;;;6.83;;
5010;SDS011;2524;54.364;10.072;2024-03-06T00:51:40;7.47;;;6.77;;
5010;SDS011;2524;54.364;10.072;2024-03-06T00:54:05;6.07;;;5.47;;
5010;SDS011;2524;54.364;10.072;2024-03-06T00:56:31;7.17;;;5.70;;
5010;SDS011;2524;54.364;10.072;2024-03-06T00:58:56;6.17;;;5.60;;
5010;SDS011;2524;54.364;10.072;2024-03-06T01:01:22;5.20;;;4.80;;
5010;SDS011;2524;54.364;10.072;2024-03-06T01:03:47;6.10;;;5.50;;
5010;SDS011;2524;54.364;10.072;2024-03-06T01:06:13;5.37;;;4.97;;
5010;SDS011;2524;54.364;10.072;2024-03-06T01:08:39;5.10;;;4.70;;
5010;SDS011;2524;54.364;10.072;2024-03-06T01:11:06;5.63;;;5.00;;
5010;SDS011;2524;54.364;10.072;2024-03-06T01:13:31;4.93;;;4.53;;
5010;SDS011;2524;54.364;10.072;2024-03-06T01:15:57;4.90;;;4.60;;
5010;SDS011;2524;54.364;10.072;2024-03-06T01:18:23;5.30;;;4.90;;
5010;SDS011;2524;54.364;10.072;2024-03-06T01:20:48;5.03;;;4.63;;
5010;SDS011;2524;54.364;10.072;2024-03-06T01:23:14;5.77;;;5.30;;
5010;SDS011;2524;54.364;10.072;2024-03-06T01:25:39;5.37;;;4.97;;
5010;SDS011;2524;54.364;10.072;2024-03-06T01:28:05;5.47;;;5.00;;
5010;SDS011;2524;54.364;10.072;2024-03-06T01:30:31;6.90;;;5.87;;
5010;SDS011;2524;54.364;10.072;2024-03-06T01:32:57;6.20;;;5.63;;
5010;SDS011;2524;54.364;10.072;2024-03-06T01:35:23;4.77;;;4.40;;
5010;SDS011;2524;54.364;10.072;2024-03-06T01:37:49;5.73;;;5.23;;
5010;SDS011;2524;54.364;10.072;2024-03-06T01:40:14;5.50;;;5.03;;
5010;SDS011;2524;54.364;10.072;2024-03-06T01:42:40;4.80;;;4.40;;
5010;SDS011;2524;54.364;10.072;2024-03-06T01:45:06;5.23;;;4.83;;
5010;SDS011;2524;54.364;10.072;2024-03-06T01:47:32;5.63;;;5.13;;
5010;SDS011;2524;54.364;10.072;2024-03-06T01:49:58;5.33;;;4.70;;
5010;SDS011;2524;54.364;10.072;2024-03-06T01:52:24;4.20;;;3.90;;
5010;SDS011;2524;54.364;10.072;2024-03-06T01:54:51;3.97;;;3.70;;
5010;SDS011;2524;54.364;10.072;2024-03-06T01:57:17;5.70;;;5.20;;
5010;SDS011;2524;54.364;10.072;2024-03-06T01:59:44;4.50;;;4.23;;
5010;SDS011;2524;54.364;10.072;2024-03-06T02:02:09;4.23;;;3.93;;
5010;SDS011;2524;54.364;10.072;2024-03-06T02:04:36;4.97;;;4.50;;
5010;SDS011;2524;54.364;10.072;2024-03-06T02:07:03;5.40;;;5.00;;
5010;SDS011;2524;54.364;10.072;2024-03-06T02:09:32;5.57;;;5.10;;
5010;SDS011;2524;54.364;10.072;2024-03-06T02:11:57;7.00;;;6.30;;
5010;SDS011;2524;54.364;10.072;2024-03-06T02:14:23;4.97;;;4.63;;
5010;SDS011;2524;54.364;10.072;2024-03-06T02:16:48;4.87;;;4.50;;
5010;SDS011;2524;54.364;10.072;2024-03-06T02:19:14;5.10;;;4.80;;
5010;SDS011;2524;54.364;10.072;2024-03-06T02:21:40;5.50;;;5.10;;
5010;SDS011;2524;54.364;10.072;2024-03-06T02:24:06;5.40;;;5.00;;
5010;SDS011;2524;54.364;10.072;2024-03-06T02:26:33;4.37;;;4.00;;
5010;SDS011;2524;54.364;10.072;2024-03-06T02:28:59;5.87;;;5.33;;
5010;SDS011;2524;54.364;10.072;2024-03-06T02:31:25;6.27;;;5.77;;
5010;SDS011;2524;54.364;10.072;2024-03-06T02:33:50;5.80;;;5.30;;
5010;SDS011;2524;54.364;10.072;2024-03-06T02:36:16;6.63;;;6.03;;
5010;SDS011;2524;54.364;10.072;2024-03-06T02:38:43;4.87;;;4.50;;
5010;SDS011;2524;54.364;10.072;2024-03-06T02:41:09;4.20;;;3.90;;
5010;SDS011;2524;54.364;10.072;2024-03-06T02:43:35;4.47;;;4.17;;
5010;SDS011;2524;54.364;10.072;2024-03-06T02:46:01;5.27;;;4.87;;
5010;SDS011;2524;54.364;10.072;2024-03-06T02:48:28;5.03;;;4.60;;
5010;SDS011;2524;54.364;10.072;2024-03-06T02:50:54;4.07;;;3.87;;
5010;SDS011;2524;54.364;10.072;2024-03-06T02:53:20;5.37;;;4.97;;
5010;SDS011;2524;54.364;10.072;2024-03-06T02:55:45;5.03;;;4.63;;
5010;SDS011;2524;54.364;10.072;2024-03-06T02:58:11;4.77;;;4.43;;
5010;SDS011;2524;54.364;10.072;2024-03-06T03:00:39;4.20;;;4.00;;
5010;SDS011;2524;54.364;10.072;2024-03-06T03:03:05;4.63;;;4.33;;
5010;SDS011;2524;54.364;10.072;2024-03-06T03:05:35;4.80;;;4.50;;
5010;SDS011;2524;54.364;10.072;2024-03-06T03:08:01;5.67;;;5.27;;
5010;SDS011;2524;54.364;10.072;2024-03-06T03:10:28;6.47;;;5.83;;
5010;SDS011;2524;54.364;10.072;2024-03-06T03:12:54;4.40;;;4.00;;
5010;SDS011;2524;54.364;10.072;2024-03-06T03:15:20;6.00;;;5.47;;
5010;SDS011;2524;54.364;10.072;2024-03-06T03:17:46;5.93;;;5.43;;
5010;SDS011;2524;54.364;10.072;2024-03-06T03:20:12;5.50;;;5.00;;
5010;SDS011;2524;54.364;10.072;2024-03-06T03:22:41;4.67;;;4.37;;
5010;SDS011;2524;54.364;10.072;2024-03-06T03:25:10;5.10;;;4.80;;
5010;SDS011;2524;54.364;10.072;2024-03-06T03:27:37;5.90;;;5.30;;
5010;SDS011;2524;54.364;10.072;2024-03-06T03:30:09;6.00;;;5.43;;
5010;SDS011;2524;54.364;10.072;2024-03-06T03:32:35;5.77;;;5.27;;
5010;SDS011;2524;54.364;10.072;2024-03-06T03:35:01;5.00;;;4.70;;
5010;SDS011;2524;54.364;10.072;2024-03-06T03:37:28;4.97;;;4.50;;
5010;SDS011;2524;54.364;10.072;2024-03-06T03:39:53;5.07;;;4.67;;
5010;SDS011;2524;54.364;10.072;2024-03-06T03:42:19;4.97;;;4.53;;
5010;SDS011;2524;54.364;10.072;2024-03-06T03:44:45;4.03;;;3.73;;
5010;SDS011;2524;54.364;10.072;2024-03-06T03:47:10;5.20;;;4.77;;
5010;SDS011;2524;54.364;10.072;2024-03-06T03:49:37;5.20;;;4.77;;
5010;SDS011;2524;54.364;10.072;2024-03-06T03:52:03;6.13;;;5.63;;
5010;SDS011;2524;54.364;10.072;2024-03-06T03:54:28;4.23;;;4.03;;
5010;SDS011;2524;54.364;10.072;2024-03-06T03:56:54;5.93;;;5.43;;
5010;SDS011;2524;54.364;10.072;2024-03-06T03:59:20;5.10;;;4.70;;
5010;SDS011;2524;54.364;10.072;2024-03-06T04:01:45;4.80;;;4.40;;
5010;SDS011;2524;54.364;10.072;2024-03-06T04:04:12;5.37;;;4.93;;
5010;SDS011;2524;54.364;10.072;2024-03-06T04:06:37;4.30;;;4.00;;
5010;SDS011;2524;54.364;10.072;2024-03-06T04:09:03;4.93;;;4.53;;
5010;SDS011;2524;54.364;10.072;2024-03-06T04:11:30;4.50;;;4.20;;
5010;SDS011;2524;54.364;10.072;2024-03-06T04:13:57;3.80;;;3.60;;
5010;SDS011;2524;54.364;10.072;2024-03-06T04:16:23;4.80;;;4.43;;
5010;SDS011;2524;54.364;10.072;2024-03-06T04:18:48;5.20;;;4.70;;
5010;SDS011;2524;54.364;10.072;2024-03-06T04:21:14;5.63;;;5.20;;
5010;SDS011;2524;54.364;10.072;2024-03-06T04:23:40;5.80;;;5.40;;
5010;SDS011;2524;54.364;10.072;2024-03-06T04:26:05;5.20;;;4.80;;
5010;SDS011;2524;54.364;10.072;2024-03-06T04:28:31;5.40;;;5.00;;
5010;SDS011;2524;54.364;10.072;2024-03-06T04:30:57;5.70;;;5.30;;
5010;SDS011;2524;54.364;10.072;2024-03-06T04:33:22;4.60;;;4.30;;
5010;SDS011;2524;54.364;10.072;2024-03-06T04:35:48;4.60;;;4.20;;
5010;SDS011;2524;54.364;10.072;2024-03-06T04:38:14;5.10;;;4.80;;
5010;SDS011;2524;54.364;10.072;2024-03-06T04:40:39;5.00;;;4.70;;
5010;SDS011;2524;54.364;10.072;2024-03-06T04:43:05;5.00;;;4.60;;
5010;SDS011;2524;54.364;10.072;2024-03-06T04:45:32;5.03;;;4.73;;
5010;SDS011;2524;54.364;10.072;2024-03-06T04:47:58;4.47;;;4.17;;
5010;SDS011;2524;54.364;10.072;2024-03-06T04:50:24;5.47;;;5.07;;
5010;SDS011;2524;54.364;10.072;2024-03-06T04:52:50;5.40;;;5.00;;
5010;SDS011;2524;54.364;10.072;2024-03-06T04:55:15;5.30;;;4.90;;
5010;SDS011;2524;54.364;10.072;2024-03-06T04:57:45;5.03;;;4.63;;
5010;SDS011;2524;54.364;10.072;2024-03-06T05:00:11;5.40;;;5.00;;
5010;SDS011;2524;54.364;10.072;2024-03-06T05:02:37;4.63;;;4.30;;
5010;SDS011;2524;54.364;10.072;2024-03-06T05:05:03;5.47;;;5.03;;
5010;SDS011;2524;54.364;10.072;2024-03-06T05:07:29;5.83;;;5.33;;
5010;SDS011;2524;54.364;10.072;2024-03-06T05:09:56;4.20;;;3.90;;
5010;SDS011;2524;54.364;10.072;2024-03-06T05:12:23;5.93;;;5.43;;
5010;SDS011;2524;54.364;10.072;2024-03-06T05:14:49;6.63;;;6.10;;
5010;SDS011;2524;54.364;10.072;2024-03-06T05:17:16;6.20;;;5.70;;
5010;SDS011;2524;54.364;10.072;2024-03-06T05:19:42;6.23;;;5.73;;
5010;SDS011;2524;54.364;10.072;2024-03-06T05:22:08;4.50;;;4.20;;
5010;SDS011;2524;54.364;10.072;2024-03-06T05:24:34;4.80;;;4.50;;
5010;SDS011;2524;54.364;10.072;2024-03-06T05:26:59;7.00;;;6.30;;
5010;SDS011;2524;54.364;10.072;2024-03-06T05:29:25;6.40;;;5.80;;
5010;SDS011;2524;54.364;10.072;2024-03-06T05:31:51;8.00;;;6.50;;
5010;SDS011;2524;54.364;10.072;2024-03-06T05:34:16;5.93;;;5.43;;
5010;SDS011;2524;54.364;10.072;2024-03-06T05:36:42;7.20;;;6.60;;
5010;SDS011;2524;54.364;10.072;2024-03-06T05:39:08;6.90;;;6.30;;
5010;SDS011;2524;54.364;10.072;2024-03-06T05:41:37;7.47;;;6.77;;
5010;SDS011;2524;54.364;10.072;2024-03-06T05:44:04;6.13;;;5.53;;
5010;SDS011;2524;54.364;10.072;2024-03-06T05:46:29;5.87;;;5.37;;
5010;SDS011;2524;54.364;10.072;2024-03-06T05:48:55;5.53;;;5.07;;
5010;SDS011;2524;54.364;10.072;2024-03-06T05:51:20;7.20;;;6.50;;
5010;SDS011;2524;54.364;10.072;2024-03-06T05:53:46;7.73;;;7.00;;
5010;SDS011;2524;54.364;10.072;2024-03-06T05:56:11;7.57;;;6.87;;
5010;SDS011;2524;54.364;10.072;2024-03-06T05:58:37;5.80;;;5.30;;
5010;SDS011;2524;54.364;10.072;2024-03-06T06:01:03;6.97;;;6.27;;
5010;SDS011;2524;54.364;10.072;2024-03-06T06:03:29;5.67;;;5.20;;
5010;SDS011;2524;54.364;10.072;2024-03-06T06:05:55;6.57;;;5.90;;
5010;SDS011;2524;54.364;10.072;2024-03-06T06:08:21;6.77;;;6.17;;
5010;SDS011;2524;54.364;10.072;2024-03-06T06:10:47;7.00;;;6.40;;
5010;SDS011;2524;54.364;10.072;2024-03-06T06:13:13;6.00;;;5.50;;
5010;SDS011;2524;54.364;10.072;2024-03-06T06:15:39;5.67;;;5.17;;
5010;SDS011;2524;54.364;10.072;2024-03-06T06:18:05;5.93;;;5.43;;
5010;SDS011;2524;54.364;10.072;2024-03-06T06:20:30;5.53;;;5.07;;
5010;SDS011;2524;54.364;10.072;2024-03-06T06:22:56;7.13;;;6.40;;
5010;SDS011;2524;54.364;10.072;2024-03-06T06:25:22;8.13;;;7.40;;
5010;SDS011;2524;54.364;10.072;2024-03-06T06:27:48;7.40;;;6.60;;
5010;SDS011;2524;54.364;10.072;2024-03-06T06:30:14;6.90;;;6.20;;
5010;SDS011;2524;54.364;10.072;2024-03-06T06:32:41;5.53;;;5.03;;
5010;SDS011;2524;54.364;10.072;2024-03-06T06:35:07;4.60;;;4.30;;
5010;SDS011;2524;54.364;10.072;2024-03-06T06:37:34;5.53;;;5.00;;
5010;SDS011;2524;54.364;10.072;2024-03-06T06:40:00;4.90;;;4.50;;
5010;SDS011;2524;54.364;10.072;2024-03-06T06:42:31;4.80;;;4.40;;
5010;SDS011;2524;54.364;10.072;2024-03-06T06:45:00;6.00;;;5.50;;
5010;SDS011;2524;54.364;10.072;2024-03-06T06:47:25;6.53;;;5.90;;
5010;SDS011;2524;54.364;10.072;2024-03-06T06:49:51;5.00;;;4.60;;
5010;SDS011;2524;54.364;10.072;2024-03-06T06:52:17;4.50;;;4.20;;
5010;SDS011;2524;54.364;10.072;2024-03-06T06:54:43;4.60;;;4.30;;
5010;SDS011;2524;54.364;10.072;2024-03-06T06:57:08;6.80;;;6.10;;
5010;SDS011;2524;54.364;10.072;2024-03-06T06:59:34;7.37;;;6.53;;
5010;SDS011;2524;54.364;10.072;2024-03-06T07:02:00;7.27;;;6.57;;
5010;SDS011;2524;54.364;10.072;2024-03-06T07:04:27;6.10;;;5.60;;
5010;SDS011;2524;54.364;10.072;2024-03-06T07:06:52;5.10;;;4.70;;
5010;SDS011;2524;54.364;10.072;2024-03-06T07:09:19;7.97;;;6.90;;
5010;SDS011;2524;54.364;10.072;2024-03-06T07:11:45;7.77;;;6.97;;
5010;SDS011;2524;54.364;10.072;2024-03-06T07:14:13;7.20;;;6.50;;
5010;SDS011;2524;54.364;10.072;2024-03-06T07:16:43;6.07;;;5.50;;
5010;SDS011;2524;54.364;10.072;2024-03-06T07:19:09;6.33;;;5.73;;
5010;SDS011;2524;54.364;10.072;2024-03-06T07:21:34;8.10;;;6.50;;
5010;SDS011;2524;54.364;10.072;2024-03-06T07:24:00;6.33;;;5.73;;
5010;SDS011;2524;54.364;10.072;2024-03-06T07:26:26;6.93;;;6.33;;
5010;SDS011;2524;54.364;10.072;2024-03-06T07:28:54;8.47;;;7.67;;
5010;SDS011;2524;54.364;10.072;2024-03-06T07:31:20;8.80;;;7.90;;
5010;SDS011;2524;54.364;10.072;2024-03-06T07:33:46;7.90;;;7.03;;
5010;SDS011;2524;54.364;10.072;2024-03-06T07:36:12;7.87;;;7.17;;
5010;SDS011;2524;54.364;10.072;2024-03-06T07:38:37;7.47;;;6.70;;
5010;SDS011;2524;54.364;10.072;2024-03-06T07:41:03;6.77;;;6.13;;
5010;SDS011;2524;54.364;10.072;2024-03-06T07:43:29;6.60;;;6.00;;
5010;SDS011;2524;54.364;10.072;2024-03-06T07:45:54;7.20;;;6.50;;
5010;SDS011;2524;54.364;10.072;2024-03-06T07:48:20;7.20;;;6.50;;
5010;SDS011;2524;54.364;10.072;2024-03-06T07:50:46;5.83;;;5.33;;
5010;SDS011;2524;54.364;10.072;2024-03-06T07:53:11;4.37;;;4.10;;
5010;SDS011;2524;54.364;10.072;2024-03-06T07:55:37;4.23;;;3.83;;
5010;SDS011;2524;54.364;10.072;2024-03-06T07:58:04;3.20;;;3.10;;
5010;SDS011;2524;54.364;10.072;2024-03-06T08:00:29;3.30;;;3.10;;
5010;SDS011;2524;54.364;10.072;2024-03-06T08:02:56;3.00;;;2.90;;
5010;SDS011;2524;54.364;10.072;2024-03-06T08:05:22;3.20;;;3.07;;
5010;SDS011;2524;54.364;10.072;2024-03-06T08:07:47;3.90;;;3.70;;
5010;SDS011;2524;54.364;10.072;2024-03-06T08:10:13;4.30;;;4.10;;
5010;SDS011;2524;54.364;10.072;2024-03-06T08:12:43;4.30;;;4.00;;
5010;SDS011;2524;54.364;10.072;2024-03-06T08:15:11;4.20;;;3.93;;
5010;SDS011;2524;54.364;10.072;2024-03-06T08:17:38;5.40;;;5.00;;
5010;SDS011;2524;54.364;10.072;2024-03-06T08:20:06;6.50;;;5.80;;
5010;SDS011;2524;54.364;10.072;2024-03-06T08:22:37;4.93;;;4.63;;
5010;SDS011;2524;54.364;10.072;2024-03-06T08:25:07;5.37;;;4.97;;
5010;SDS011;2524;54.364;10.072;2024-03-06T08:27:37;5.20;;;4.80;;
5010;SDS011;2524;54.364;10.072;2024-03-06T08:30:06;4.17;;;3.97;;
5010;SDS011;2524;54.364;10.072;2024-03-06T08:32:33;5.87;;;5.37;;
5010;SDS011;2524;54.364;10.072;2024-03-06T08:35:00;5.13;;;4.73;;
5010;SDS011;2524;54.364;10.072;2024-03-06T08:37:27;5.87;;;5.47;;
5010;SDS011;2524;54.364;10.072;2024-03-06T08:39:54;5.73;;;5.23;;
5010;SDS011;2524;54.364;10.072;2024-03-06T08:42:19;4.50;;;4.20;;
5010;SDS011;2524;54.364;10.072;2024-03-06T08:44:45;4.23;;;4.03;;
5010;SDS011;2524;54.364;10.072;2024-03-06T08:47:11;4.53;;;4.23;;
5010;SDS011;2524;54.364;10.072;2024-03-06T08:49:37;4.20;;;3.90;;
5010;SDS011;2524;54.364;10.072;2024-03-06T08:52:03;3.77;;;3.57;;
5010;SDS011;2524;54.364;10.072;2024-03-06T08:54:28;4.73;;;4.40;;
5010;SDS011;2524;54.364;10.072;2024-03-06T08:56:56;5.30;;;4.80;;
5010;SDS011;2524;54.364;10.072;2024-03-06T08:59:23;6.00;;;5.43;;
5010;SDS011;2524;54.364;10.072;2024-03-06T09:01:51;8.30;;;7.50;;
5010;SDS011;2524;54.364;10.072;2024-03-06T09:04:17;6.23;;;5.67;;
5010;SDS011;2524;54.364;10.072;2024-03-06T09:06:42;5.40;;;5.00;;
5010;SDS011;2524;54.364;10.072;2024-03-06T09:09:08;4.87;;;4.57;;
5010;SDS011;2524;54.364;10.072;2024-03-06T09:11:34;7.70;;;5.50;;
5010;SDS011;2524;54.364;10.072;2024-03-06T09:14:00;7.63;;;6.87;;
5010;SDS011;2524;54.364;10.072;2024-03-06T09:16:26;6.00;;;5.50;;
5010;SDS011;2524;54.364;10.072;2024-03-06T09:18:52;4.20;;;4.00;;
5010;SDS011;2524;54.364;10.072;2024-03-06T09:21:17;4.73;;;4.30;;
5010;SDS011;2524;54.364;10.072;2024-03-06T09:23:44;5.97;;;5.23;;
5010;SDS011;2524;54.364;10.072;2024-03-06T09:26:10;5.70;;;5.20;;
5010;SDS011;2524;54.364;10.072;2024-03-06T09:28:35;3.90;;;3.70;;
5010;SDS011;2524;54.364;10.072;2024-03-06T09:31:01;4.53;;;4.23;;
5010;SDS011;2524;54.364;10.072;2024-03-06T09:33:27;4.63;;;4.33;;
5010;SDS011;2524;54.364;10.072;2024-03-06T09:35:52;5.20;;;4.80;;
5010;SDS011;2524;54.364;10.072;2024-03-06T09:38:18;3.70;;;3.50;;
5010;SDS011;2524;54.364;10.072;2024-03-06T09:40:43;4.07;;;3.87;;
5010;SDS011;2524;54.364;10.072;2024-03-06T09:43:09;3.70;;;3.50;;
5010;SDS011;2524;54.364;10.072;2024-03-06T09:45:35;5.13;;;4.73;;
5010;SDS011;2524;54.364;10.072;2024-03-06T09:48:01;6.23;;;5.73;;
5010;SDS011;2524;54.364;10.072;2024-03-06T09:50:27;6.60;;;6.00;;
5010;SDS011;2524;54.364;10.072;2024-03-06T09:52:59;6.23;;;5.40;;
5010;SDS011;2524;54.364;10.072;2024-03-06T09:55:26;6.87;;;6.20;;
5010;SDS011;2524;54.364;10.072;2024-03-06T09:57:52;6.07;;;5.47;;
5010;SDS011;2524;54.364;10.072;2024-03-06T10:00:18;7.20;;;6.53;;
5010;SDS011;2524;54.364;10.072;2024-03-06T10:03:04;7.17;;;6.43;;
5010;SDS011;2524;54.364;10.072;2024-03-06T10:05:33;7.90;;;7.13;;
5010;SDS011;2524;54.364;10.072;2024-03-06T10:08:03;5.80;;;5.37;;
5010;SDS011;2524;54.364;10.072;2024-03-06T10:10:29;6.83;;;6.00;;
5010;SDS011;2524;54.364;10.072;2024-03-06T10:12:55;5.50;;;5.10;;
5010;SDS011;2524;54.364;10.072;2024-03-06T10:15:25;5.80;;;5.40;;
5010;SDS011;2524;54.364;10.072;2024-03-06T10:18:09;5.57;;;5.20;;
5010;SDS011;2524;54.364;10.072;2024-03-06T10:20:39;9.77;;;8.03;;
5010;SDS011;2524;54.364;10.072;2024-03-06T10:23:05;6.07;;;5.57;;
5010;SDS011;2524;54.364;10.072;2024-03-06T10:25:32;6.07;;;5.57;;
5010;SDS011;2524;54.364;10.072;2024-03-06T10:30:34;8.60;;;7.30;;
5010;SDS011;2524;54.364;10.072;2024-03-06T10:33:04;8.23;;;7.43;;
5010;SDS011;2524;54.364;10.072;2024-03-06T10:35:36;7.03;;;6.43;;
5010;SDS011;2524;54.364;10.072;2024-03-06T10:38:03;6.70;;;6.10;;
5010;SDS011;2524;54.364;10.072;2024-03-06T10:40:33;8.10;;;7.30;;
5010;SDS011;2524;54.364;10.072;2024-03-06T10:43:01;8.30;;;7.47;;
5010;SDS011;2524;54.364;10.072;2024-03-06T10:48:06;8.50;;;6.83;;
5010;SDS011;2524;54.364;10.072;2024-03-06T10:50:32;6.80;;;6.20;;
5010;SDS011;2524;54.364;10.072;2024-03-06T10:52:59;7.37;;;6.63;;
5010;SDS011;2524;54.364;10.072;2024-03-06T10:55:27;5.13;;;4.73;;
5010;SDS011;2524;54.364;10.072;2024-03-06T10:57:54;5.70;;;5.23;;
5010;SDS011;2524;54.364;10.072;2024-03-06T11:00:22;7.43;;;6.60;;
5010;SDS011;2524;54.364;10.072;2024-03-06T11:02:49;10.40;;;8.53;;
5010;SDS011;2524;54.364;10.072;2024-03-06T11:05:18;7.50;;;6.80;;
5010;SDS011;2524;54.364;10.072;2024-03-06T11:07:43;9.47;;;8.57;;
5010;SDS011;2524;54.364;10.072;2024-03-06T11:10:10;8.10;;;7.30;;
5010;SDS011;2524;54.364;10.072;2024-03-06T11:12:41;10.10;;;8.00;;
5010;SDS011;2524;54.364;10.072;2024-03-06T11:17:42;8.23;;;7.13;;
5010;SDS011;2524;54.364;10.072;2024-03-06T11:20:08;6.30;;;5.80;;
5010;SDS011;2524;54.364;10.072;2024-03-06T11:28:11;6.47;;;5.87;;
5010;SDS011;2524;54.364;10.072;2024-03-06T11:30:45;8.50;;;7.70;;
5010;SDS011;2524;54.364;10.072;2024-03-06T11:33:15;8.23;;;7.47;;
5010;SDS011;2524;54.364;10.072;2024-03-06T11:38:50;7.10;;;6.50;;
5010;SDS011;2524;54.364;10.072;2024-03-06T11:41:28;7.50;;;6.80;;
5010;SDS011;2524;54.364;10.072;2024-03-06T11:43:55;6.63;;;6.03;;
5010;SDS011;2524;54.364;10.072;2024-03-06T11:46:58;7.90;;;7.20;;
5010;SDS011;2524;54.364;10.072;2024-03-06T11:49:22;7.43;;;6.80;;
5010;SDS011;2524;54.364;10.072;2024-03-06T11:51:57;7.23;;;6.63;;
5010;SDS011;2524;54.364;10.072;2024-03-06T11:54:27;9.57;;;8.57;;
5010;SDS011;2524;54.364;10.072;2024-03-06T11:56:55;8.53;;;7.70;;
5010;SDS011;2524;54.364;10.072;2024-03-06T11:59:29;7.87;;;7.03;;
5010;SDS011;2524;54.364;10.072;2024-03-06T12:01:57;7.47;;;6.63;;
5010;SDS011;2524;54.364;10.072;2024-03-06T12:04:27;9.40;;;7.00;;
5010;SDS011;2524;54.364;10.072;2024-03-06T12:06:56;10.20;;;8.53;;
5010;SDS011;2524;54.364;10.072;2024-03-06T12:09:24;10.73;;;9.10;;
5010;SDS011;2524;54.364;10.072;2024-03-06T12:11:50;8.77;;;7.80;;
5010;SDS011;2524;54.364;10.072;2024-03-06T12:14:17;6.60;;;6.00;;
5010;SDS011;2524;54.364;10.072;2024-03-06T12:16:56;9.53;;;8.63;;
5010;SDS011;2524;54.364;10.072;2024-03-06T12:19:31;8.13;;;7.43;;
5010;SDS011;2524;54.364;10.072;2024-03-06T12:22:01;8.60;;;7.80;;
5010;SDS011;2524;54.364;10.072;2024-03-06T12:24:29;7.30;;;6.70;;
5010;SDS011;2524;54.364;10.072;2024-03-06T12:27:01;7.20;;;6.50;;
5010;SDS011;2524;54.364;10.072;2024-03-06T12:29:32;6.67;;;6.10;;
5010;SDS011;2524;54.364;10.072;2024-03-06T12:31:59;7.43;;;6.53;;
5010;SDS011;2524;54.364;10.072;2024-03-06T12:34:25;5.90;;;5.40;;
5010;SDS011;2524;54.364;10.072;2024-03-06T12:36:51;6.40;;;5.77;;
5010;SDS011;2524;54.364;10.072;2024-03-06T12:39:16;10.07;;;8.37;;
5010;SDS011;2524;54.364;10.072;2024-03-06T12:41:49;7.80;;;7.00;;
5010;SDS011;2524;54.364;10.072;2024-03-06T12:44:15;7.13;;;6.43;;
5010;SDS011;2524;54.364;10.072;2024-03-06T12:46:41;6.30;;;5.70;;
5010;SDS011;2524;54.364;10.072;2024-03-06T12:49:07;6.80;;;6.10;;
5010;SDS011;2524;54.364;10.072;2024-03-06T12:51:33;8.87;;;8.00;;
5010;SDS011;2524;54.364;10.072;2024-03-06T12:53:58;8.27;;;7.47;;
5010;SDS011;2524;54.364;10.072;2024-03-06T12:56:25;8.57;;;7.73;;
5010;SDS011;2524;54.364;10.072;2024-03-06T12:58:51;12.40;;;8.13;;
5010;SDS011;2524;54.364;10.072;2024-03-06T13:01:17;8.30;;;7.53;;
5010;SDS011;2524;54.364;10.072;2024-03-06T13:03:42;7.70;;;6.87;;
5010;SDS011;2524;54.364;10.072;2024-03-06T13:06:08;8.90;;;7.60;;
5010;SDS011;2524;54.364;10.072;2024-03-06T13:08:34;6.33;;;5.73;;
5010;SDS011;2524;54.364;10.072;2024-03-06T13:11:01;5.10;;;4.73;;
5010;SDS011;2524;54.364;10.072;2024-03-06T13:13:26;5.70;;;5.30;;
5010;SDS011;2524;54.364;10.072;2024-03-06T13:15:54;8.30;;;7.50;;
5010;SDS011;2524;54.364;10.072;2024-03-06T13:18:20;8.00;;;7.20;;
5010;SDS011;2524;54.364;10.072;2024-03-06T13:20:45;5.73;;;5.33;;
5010;SDS011;2524;54.364;10.072;2024-03-06T13:23:11;7.60;;;6.40;;
5010;SDS011;2524;54.364;10.072;2024-03-06T13:25:37;6.47;;;5.97;;
5010;SDS011;2524;54.364;10.072;2024-03-06T13:28:03;5.50;;;5.10;;
5010;SDS011;2524;54.364;10.072;2024-03-06T13:30:30;5.60;;;5.20;;
5010;SDS011;2524;54.364;10.072;2024-03-06T13:32:55;5.60;;;5.20;;
5010;SDS011;2524;54.364;10.072;2024-03-06T13:35:21;5.80;;;5.40;;
5010;SDS011;2524;54.364;10.072;2024-03-06T13:37:47;8.33;;;6.70;;
5010;SDS011;2524;54.364;10.072;2024-03-06T13:40:14;6.87;;;6.27;;
5010;SDS011;2524;54.364;10.072;2024-03-06T13:42:41;6.97;;;6.27;;
5010;SDS011;2524;54.364;10.072;2024-03-06T13:45:07;5.97;;;5.47;;
5010;SDS011;2524;54.364;10.072;2024-03-06T13:47:40;7.70;;;6.90;;
5010;SDS011;2524;54.364;10.072;2024-03-06T13:50:07;5.37;;;4.97;;
5010;SDS011;2524;54.364;10.072;2024-03-06T13:52:34;6.63;;;6.13;;
5010;SDS011;2524;54.364;10.072;2024-03-06T13:54:59;6.33;;;5.83;;
5010;SDS011;2524;54.364;10.072;2024-03-06T13:57:29;4.60;;;4.20;;
5010;SDS011;2524;54.364;10.072;2024-03-06T13:59:58;5.83;;;5.23;;
5010;SDS011;2524;54.364;10.072;2024-03-06T14:02:25;6.30;;;5.80;;
5010;SDS011;2524;54.364;10.072;2024-03-06T14:04:50;4.77;;;4.47;;
5010;SDS011;2524;54.364;10.072;2024-03-06T14:07:16;6.40;;;5.80;;
5010;SDS011;2524;54.364;10.072;2024-03-06T14:09:42;6.07;;;5.27;;
5010;SDS011;2524;54.364;10.072;2024-03-06T14:12:07;6.60;;;6.10;;
5010;SDS011;2524;54.364;10.072;2024-03-06T14:14:33;5.53;;;5.13;;
5010;SDS011;2524;54.364;10.072;2024-03-06T14:16:59;6.27;;;5.77;;
5010;SDS011;2524;54.364;10.072;2024-03-06T14:19:24;6.80;;;6.30;;
5010;SDS011;2524;54.364;10.072;2024-03-06T14:21:50;5.40;;;5.10;;
5010;SDS011;2524;54.364;10.072;2024-03-06T14:24:16;5.03;;;4.73;;
5010;SDS011;2524;54.364;10.072;2024-03-06T14:26:42;5.13;;;4.83;;
5010;SDS011;2524;54.364;10.072;2024-03-06T14:29:07;7.93;;;7.20;;
5010;SDS011;2524;54.364;10.072;2024-03-06T14:31:34;5.53;;;5.13;;
5010;SDS011;2524;54.364;10.072;2024-03-06T14:34:00;5.40;;;4.93;;
5010;SDS011;2524;54.364;10.072;2024-03-06T14:36:25;5.20;;;4.80;;
5010;SDS011;2524;54.364;10.072;2024-03-06T14:38:51;4.63;;;4.33;;
5010;SDS011;2524;54.364;10.072;2024-03-06T14:41:18;5.07;;;4.70;;
5010;SDS011;2524;54.364;10.072;2024-03-06T14:43:44;5.77;;;5.43;;
5010;SDS011;2524;54.364;10.072;2024-03-06T14:46:10;5.93;;;5.53;;
5010;SDS011;2524;54.364;10.072;2024-03-06T14:48:37;4.97;;;4.67;;
5010;SDS011;2524;54.364;10.072;2024-03-06T14:51:03;4.37;;;4.17;;
5010;SDS011;2524;54.364;10.072;2024-03-06T14:53:29;5.50;;;5.10;;
5010;SDS011;2524;54.364;10.072;2024-03-06T14:55:55;5.37;;;5.07;;
5010;SDS011;2524;54.364;10.072;2024-03-06T14:58:21;4.50;;;4.20;;
5010;SDS011;2524;54.364;10.072;2024-03-06T15:00:48;4.50;;;4.30;;
5010;SDS011;2524;54.364;10.072;2024-03-06T15:03:13;4.20;;;4.00;;
5010;SDS011;2524;54.364;10.072;2024-03-06T15:05:39;4.90;;;4.60;;
5010;SDS011;2524;54.364;10.072;2024-03-06T15:08:05;6.03;;;5.10;;
5010;SDS011;2524;54.364;10.072;2024-03-06T15:10:31;7.20;;;6.10;;
5010;SDS011;2524;54.364;10.072;2024-03-06T15:13:00;5.70;;;5.30;;